Time;durP1;ratioP1;P1;durP2;ratioP2;P2;SDS_P1;SDS_P2;PMS_P1;PMS_P2;Temp;Humidity;BMP_temperature;BMP_pressure;BME280_temperature;BME280_humidity;BME280_pressure;Samples;Min_cycle;Max_cycle;Signal;HPM_P1;HPM_P2
2022/04/19 00:00:22;;;;;;;6.97;5.03;;;9.90;99.90;;;;;;5112566;28;20174;-67
2022/04/19 00:02:47;;;;;;;9.68;5.75;;;9.80;99.90;;;;;;5112719;28;20492;-68
2022/04/19 00:05:13;;;;;;;9.10;5.63;;;9.70;99.90;;;;;;5112774;28;20040;-67
2022/04/19 00:07:40;;;;;;;8.57;5.60;;;9.60;99.90;;;;;;5112861;28;20047;-68
2022/04/19 00:10:07;;;;;;;10.30;5.50;;;9.60;99.90;;;;;;5112499;28;20111;-67
2022/04/19 00:12:32;;;;;;;8.90;5.82;;;9.60;99.90;;;;;;5112575;28;20494;-68
2022/04/19 00:14:58;;;;;;;7.82;5.32;;;9.50;99.90;;;;;;5112514;28;20031;-67
2022/04/19 00:17:24;;;;;;;9.60;5.50;;;9.60;99.90;;;;;;5112543;28;20084;-68
2022/04/19 00:19:50;;;;;;;12.15;5.68;;;9.50;99.90;;;;;;5112029;28;20040;-67
2022/04/19 00:22:17;;;;;;;9.82;6.00;;;9.50;99.90;;;;;;5112586;28;20040;-68
2022/04/19 00:24:43;;;;;;;11.45;6.15;;;9.50;99.90;;;;;;5112255;28;20036;-67
2022/04/19 00:27:08;;;;;;;8.82;6.45;;;9.40;99.90;;;;;;5112373;28;20096;-67
2022/04/19 00:29:34;;;;;;;9.35;6.15;;;9.30;99.90;;;;;;5111992;28;20043;-67
2022/04/19 00:31:59;;;;;;;8.18;5.55;;;9.30;99.90;;;;;;5112264;28;20090;-68
2022/04/19 00:34:25;;;;;;;11.65;6.40;;;9.30;99.90;;;;;;5112046;28;20035;-67
2022/04/19 00:36:50;;;;;;;11.45;6.97;;;9.30;99.90;;;;;;5112348;28;20051;-67
2022/04/19 00:39:16;;;;;;;9.38;6.10;;;9.30;99.90;;;;;;5111897;28;20087;-68
2022/04/19 00:41:41;;;;;;;11.32;7.35;;;9.30;99.90;;;;;;5112136;28;20490;-68
2022/04/19 00:44:07;;;;;;;12.05;6.82;;;9.30;99.90;;;;;;5112054;28;20123;-67
2022/04/19 00:46:33;;;;;;;12.13;7.88;;;9.20;99.90;;;;;;5111940;28;20040;-67
2022/04/19 00:48:59;;;;;;;12.90;7.80;;;9.30;99.90;;;;;;5111509;28;20054;-68
2022/04/19 00:51:25;;;;;;;14.40;8.60;;;9.20;99.90;;;;;;5111786;28;20131;-67
2022/04/19 00:53:52;;;;;;;13.05;7.55;;;9.10;99.90;;;;;;5111976;28;20559;-67
2022/04/19 00:56:17;;;;;;;12.18;7.68;;;9.10;99.90;;;;;;5111900;28;20583;-67
2022/04/19 00:58:43;;;;;;;13.73;8.65;;;9.00;99.90;;;;;;5111555;28;20061;-67
2022/04/19 01:01:09;;;;;;;13.15;9.40;;;8.80;99.90;;;;;;5111538;28;20075;-68
2022/04/19 01:03:37;;;;;;;14.45;8.68;;;8.80;99.90;;;;;;5111489;28;20035;-68
2022/04/19 01:06:04;;;;;;;14.73;8.32;;;8.70;99.90;;;;;;5111755;28;20043;-67
2022/04/19 01:08:30;;;;;;;14.30;8.00;;;8.70;99.90;;;;;;5111311;28;20052;-68
2022/04/19 01:13:40;;;;;;;19.20;8.13;;;8.70;99.90;;;;;;5111516;28;20039;-68
2022/04/19 01:16:06;;;;;;;16.65;9.15;;;8.70;99.90;;;;;;5093001;28;20126;-67
2022/04/19 01:18:32;;;;;;;15.25;8.88;;;8.70;99.90;;;;;;5111430;28;20063;-67
2022/04/19 01:20:58;;;;;;;18.27;8.43;;;8.70;99.90;;;;;;5111584;28;20047;-67
2022/04/19 01:23:24;;;;;;;14.57;8.35;;;8.60;99.90;;;;;;5111419;28;20130;-67
2022/04/19 01:25:50;;;;;;;15.07;8.65;;;8.60;99.90;;;;;;5111415;28;20082;-67
2022/04/19 01:28:18;;;;;;;16.80;8.43;;;8.60;99.90;;;;;;5111204;28;20427;-67
2022/04/19 01:30:44;;;;;;;13.70;8.25;;;8.50;99.90;;;;;;5110978;28;20039;-67
2022/04/19 01:33:10;;;;;;;16.80;8.57;;;8.50;99.90;;;;;;5093094;28;20036;-68
2022/04/19 01:35:35;;;;;;;16.05;7.90;;;8.50;99.90;;;;;;5111395;28;20042;-68
2022/04/19 01:38:01;;;;;;;14.35;8.73;;;8.50;99.90;;;;;;5111310;28;20028;-69
2022/04/19 01:40:27;;;;;;;12.43;7.97;;;8.60;99.90;;;;;;5111115;28;20092;-69
2022/04/19 01:42:54;;;;;;;15.18;8.73;;;8.60;99.90;;;;;;5111057;28;20044;-67
2022/04/19 01:45:23;;;;;;;16.90;7.80;;;8.60;99.90;;;;;;5111044;28;20519;-67
2022/04/19 01:47:50;;;;;;;14.02;8.88;;;8.60;99.90;;;;;;5111174;28;20040;-68
2022/04/19 01:50:18;;;;;;;13.40;8.65;;;8.60;99.90;;;;;;5092588;28;20051;-67
2022/04/19 01:52:45;;;;;;;14.18;8.70;;;8.60;99.90;;;;;;5111066;28;20032;-67
2022/04/19 01:55:13;;;;;;;17.13;8.32;;;8.50;99.90;;;;;;5111007;28;20484;-67
2022/04/19 01:57:44;;;;;;;13.43;8.43;;;8.60;99.90;;;;;;5111059;28;20047;-68
2022/04/19 02:00:11;;;;;;;13.48;8.40;;;8.50;99.90;;;;;;5110529;28;20046;-68
2022/04/19 02:02:37;;;;;;;12.90;8.15;;;8.50;99.90;;;;;;5092754;28;20035;-68
2022/04/19 02:05:04;;;;;;;16.40;8.75;;;8.30;99.90;;;;;;5110787;28;20544;-67
2022/04/19 02:07:32;;;;;;;11.70;7.75;;;8.30;99.90;;;;;;5092677;28;20090;-68
2022/04/19 02:10:00;;;;;;;15.05;8.10;;;8.30;99.90;;;;;;5110607;28;20038;-67
2022/04/19 02:12:27;;;;;;;13.10;8.32;;;8.30;99.90;;;;;;5110887;28;20035;-67
2022/04/19 02:14:53;;;;;;;13.57;7.60;;;8.20;99.90;;;;;;5112788;28;20036;-67
2022/04/19 02:17:19;;;;;;;12.27;7.85;;;8.10;99.90;;;;;;5115040;28;20043;-68
2022/04/19 02:19:46;;;;;;;12.63;8.15;;;8.10;99.90;;;;;;5114634;28;20040;-67
2022/04/19 02:22:12;;;;;;;15.38;7.85;;;8.00;99.90;;;;;;5114805;28;20167;-67
2022/04/19 02:24:38;;;;;;;13.98;8.13;;;8.00;99.90;;;;;;5114674;28;20057;-67
2022/04/19 02:27:05;;;;;;;13.63;7.63;;;7.90;99.90;;;;;;5114572;28;20046;-67
2022/04/19 02:29:31;;;;;;;12.18;7.72;;;7.80;99.90;;;;;;5114375;28;20031;-68
2022/04/19 02:31:56;;;;;;;11.73;7.75;;;7.80;99.90;;;;;;5114746;28;20106;-68
2022/04/19 02:34:22;;;;;;;16.73;9.25;;;7.80;99.90;;;;;;5114588;28;20046;-66
2022/04/19 02:36:47;;;;;;;12.95;8.00;;;7.80;99.90;;;;;;5114608;28;20082;-68
2022/04/19 02:39:13;;;;;;;12.40;8.32;;;7.80;99.90;;;;;;5114241;28;20028;-68
2022/04/19 02:41:38;;;;;;;16.58;8.88;;;7.80;99.90;;;;;;5114688;28;20092;-69
2022/04/19 02:44:07;;;;;;;12.48;7.82;;;7.70;99.90;;;;;;5114472;28;20038;-67
2022/04/19 02:46:33;;;;;;;15.95;9.50;;;7.80;99.90;;;;;;5114305;28;20043;-67
2022/04/19 02:48:59;;;;;;;15.85;7.90;;;7.80;99.90;;;;;;5113928;28;20054;-68
2022/04/19 02:51:25;;;;;;;14.07;8.75;;;7.80;99.90;;;;;;5114238;28;20040;-69
2022/04/19 02:53:51;;;;;;;15.32;8.13;;;7.60;99.90;;;;;;5114107;28;20407;-67
2022/04/19 02:56:16;;;;;;;18.23;8.73;;;7.60;99.90;;;;;;5114154;28;20075;-67
2022/04/19 02:58:44;;;;;;;14.35;8.65;;;7.60;99.90;;;;;;5113795;28;20044;-67
2022/04/19 03:01:10;;;;;;;13.90;9.18;;;7.60;99.90;;;;;;5113956;28;20118;-67
2022/04/19 03:03:36;;;;;;;15.73;8.77;;;7.60;99.90;;;;;;5095599;28;20540;-67
2022/04/19 03:06:01;;;;;;;16.92;8.63;;;7.70;99.90;;;;;;5114017;28;20116;-68
2022/04/19 03:08:28;;;;;;;13.57;8.68;;;7.70;99.90;;;;;;5095290;28;20104;-69
2022/04/19 03:10:55;;;;;;;15.75;9.50;;;7.60;99.90;;;;;;5095611;28;20398;-67
2022/04/19 03:13:20;;;;;;;14.93;9.30;;;7.60;99.90;;;;;;5113765;28;20058;-67
2022/04/19 03:15:46;;;;;;;17.33;9.15;;;7.50;99.90;;;;;;5113863;28;20028;-67
2022/04/19 03:18:11;;;;;;;15.10;8.45;;;7.40;99.90;;;;;;5113540;28;20040;-68
2022/04/19 03:20:37;;;;;;;17.05;9.48;;;7.50;99.90;;;;;;5095460;28;20043;-67
2022/04/19 03:28:31;;;;;;;14.65;8.38;;;7.40;99.90;;;;;;5113235;28;20403;-67
2022/04/19 03:30:56;;;;;;;15.60;9.32;;;7.30;99.90;;;;;;5113595;28;20028;-67
2022/04/19 03:33:22;;;;;;;18.35;10.10;;;7.30;99.90;;;;;;5113245;28;20035;-68
2022/04/19 03:35:48;;;;;;;13.82;8.43;;;7.30;99.90;;;;;;5113619;28;20455;-69
2022/04/19 03:38:13;;;;;;;16.67;8.38;;;7.30;99.90;;;;;;5113461;28;20073;-67
2022/04/19 03:40:39;;;;;;;14.98;8.43;;;7.30;99.90;;;;;;5113093;28;20085;-67
2022/04/19 03:43:08;;;;;;;16.67;8.68;;;7.30;99.90;;;;;;5094823;28;20051;-68
2022/04/19 03:45:34;;;;;;;15.02;8.50;;;7.30;99.90;;;;;;5113139;28;20513;-66
2022/04/19 03:48:00;;;;;;;15.20;8.57;;;7.30;99.90;;;;;;5112943;28;20060;-68
2022/04/19 03:50:26;;;;;;;12.48;8.20;;;7.30;99.90;;;;;;5094743;28;20388;-69
2022/04/19 03:52:52;;;;;;;17.00;8.27;;;7.30;99.90;;;;;;5113122;28;20031;-68
2022/04/19 03:55:18;;;;;;;13.70;8.68;;;7.30;99.90;;;;;;5112921;28;20046;-67
2022/04/19 03:57:44;;;;;;;14.30;8.77;;;7.30;99.90;;;;;;5113016;28;20127;-67
2022/04/19 04:00:10;;;;;;;16.67;9.15;;;7.30;99.90;;;;;;5112464;28;20082;-68
2022/04/19 04:02:35;;;;;;;13.73;8.68;;;7.30;99.90;;;;;;5112895;28;20456;-68
2022/04/19 04:05:03;;;;;;;13.18;8.07;;;7.20;99.90;;;;;;5112882;28;20046;-68
2022/04/19 04:07:30;;;;;;;12.75;8.05;;;7.30;99.90;;;;;;5112913;28;20043;-68
2022/04/19 04:09:55;;;;;;;15.85;9.02;;;7.30;99.90;;;;;;5112585;28;20091;-68
2022/04/19 04:12:21;;;;;;;13.50;9.00;;;7.30;99.90;;;;;;5112777;28;20476;-68
2022/04/19 04:14:47;;;;;;;14.50;8.88;;;7.30;99.90;;;;;;5112853;28;20028;-68
2022/04/19 04:17:13;;;;;;;12.43;8.70;;;7.30;99.90;;;;;;5112932;28;20042;-68
2022/04/19 04:19:38;;;;;;;13.20;8.15;;;7.50;99.90;;;;;;5112798;28;20123;-68
2022/04/19 04:22:04;;;;;;;15.85;8.45;;;7.30;99.90;;;;;;5112903;28;20111;-68
2022/04/19 04:24:30;;;;;;;13.50;8.55;;;7.30;99.90;;;;;;5093773;28;20039;-67
2022/04/19 04:26:55;;;;;;;13.23;8.30;;;7.30;99.90;;;;;;5109243;28;20060;-68
2022/04/19 04:29:21;;;;;;;17.45;8.48;;;7.20;99.90;;;;;;5109602;28;20035;-69
2022/04/19 04:31:46;;;;;;;14.18;8.48;;;7.30;99.90;;;;;;5112277;28;20087;-67
2022/04/19 04:34:12;;;;;;;12.88;7.85;;;7.30;99.90;;;;;;5111879;28;20032;-68
2022/04/19 04:36:37;;;;;;;14.48;7.47;;;7.40;99.90;;;;;;5110920;28;20028;-68
2022/04/19 04:39:03;;;;;;;11.75;7.72;;;7.40;99.90;;;;;;5111915;28;20111;-68
2022/04/19 04:41:29;;;;;;;12.73;8.02;;;7.40;99.90;;;;;;5112051;28;20042;-68
2022/04/19 04:43:54;;;;;;;14.25;8.15;;;7.40;99.90;;;;;;5112083;28;20050;-68
2022/04/19 04:51:48;;;;;;;13.98;9.00;;;7.30;99.90;;;;;;5112071;28;20082;-68
2022/04/19 04:54:14;;;;;;;18.20;8.68;;;7.30;99.90;;;;;;5111918;28;20078;-67
2022/04/19 04:56:39;;;;;;;12.07;8.05;;;7.30;99.90;;;;;;5111843;28;20092;-69
2022/04/19 04:59:05;;;;;;;12.55;8.13;;;7.30;99.90;;;;;;5093085;28;20408;-68
2022/04/19 05:01:30;;;;;;;9.38;7.07;;;7.40;99.90;;;;;;5111714;28;20518;-67
2022/04/19 05:03:56;;;;;;;12.15;8.38;;;7.40;99.90;;;;;;5111790;28;20047;-67
2022/04/19 05:06:22;;;;;;;15.68;8.07;;;7.40;99.90;;;;;;5076689;28;20093;-67
2022/04/19 05:08:47;;;;;;;13.77;9.50;;;7.40;99.90;;;;;;5111361;28;20221;-67
2022/04/19 05:11:13;;;;;;;16.73;9.35;;;7.40;99.90;;;;;;5093442;28;20114;-67
2022/04/19 05:13:38;;;;;;;13.10;8.18;;;7.60;99.90;;;;;;5093451;28;20423;-67
2022/04/19 05:16:04;;;;;;;13.50;8.23;;;7.60;99.90;;;;;;5111793;28;20545;-67
2022/04/19 05:18:32;;;;;;;13.30;7.97;;;7.70;99.90;;;;;;5111433;28;20615;-68
2022/04/19 05:20:58;;;;;;;13.88;8.73;;;7.80;99.90;;;;;;5111577;28;20035;-68
2022/04/19 05:23:24;;;;;;;15.82;8.10;;;7.90;99.90;;;;;;5111369;28;20036;-67
2022/04/19 05:25:49;;;;;;;15.88;8.23;;;8.00;99.90;;;;;;5111316;28;20493;-67
2022/04/19 05:28:18;;;;;;;15.45;8.35;;;8.10;99.90;;;;;;5111552;28;20036;-68
2022/04/19 05:30:43;;;;;;;18.52;9.38;;;8.20;99.90;;;;;;5111707;28;20042;-67
2022/04/19 05:33:11;;;;;;;12.82;7.90;;;8.30;99.90;;;;;;5111679;28;20502;-68
2022/04/19 05:35:36;;;;;;;13.18;8.00;;;8.40;99.90;;;;;;5111493;28;20063;-67
2022/04/19 05:38:02;;;;;;;13.40;8.43;;;8.50;99.90;;;;;;5111369;28;20538;-67
2022/04/19 05:40:28;;;;;;;14.52;8.30;;;8.60;99.90;;;;;;5110790;28;20044;-67
2022/04/19 05:42:54;;;;;;;14.15;7.47;;;8.60;99.90;;;;;;5111303;28;20035;-67
2022/04/19 05:45:20;;;;;;;10.77;7.40;;;8.70;99.90;;;;;;5111293;28;20058;-67
2022/04/19 05:47:46;;;;;;;12.98;7.78;;;8.90;99.90;;;;;;5111224;28;20039;-67
2022/04/19 05:50:11;;;;;;;11.77;7.45;;;8.80;99.90;;;;;;5113574;28;20119;-72
2022/04/19 05:52:37;;;;;;;15.18;8.73;;;8.90;99.90;;;;;;5115497;28;20035;-72
2022/04/19 05:55:04;;;;;;;13.00;8.00;;;9.00;99.90;;;;;;5114113;28;20043;-73
2022/04/19 05:57:30;;;;;;;10.25;7.47;;;9.10;99.90;;;;;;5115490;28;20051;-72
2022/04/19 05:59:56;;;;;;;13.50;9.00;;;9.20;99.90;;;;;;5114783;28;20051;-72
2022/04/19 06:05:06;;;;;;;13.63;8.68;;;9.30;99.90;;;;;;5115099;28;20052;-72
2022/04/19 06:07:32;;;;;;;10.88;8.00;;;9.40;99.90;;;;;;5096817;28;20104;-72
2022/04/19 06:09:59;;;;;;;12.45;8.48;;;9.40;99.90;;;;;;5114693;28;20114;-72
2022/04/19 06:12:25;;;;;;;15.38;7.95;;;9.50;99.90;;;;;;5115014;28;20048;-72
2022/04/19 06:14:51;;;;;;;10.38;6.28;;;9.50;99.90;;;;;;5115182;28;20042;-73
2022/04/19 06:17:18;;;;;;;10.93;8.40;;;9.80;99.90;;;;;;5115090;28;20479;-72
2022/04/19 06:19:44;;;;;;;13.38;8.02;;;9.90;99.90;;;;;;5114802;28;20042;-72
2022/04/19 06:22:10;;;;;;;14.27;8.88;;;9.90;99.90;;;;;;5114620;28;20040;-73
2022/04/19 06:24:36;;;;;;;17.35;8.82;;;9.90;99.90;;;;;;5079750;28;20036;-72
2022/04/19 06:27:02;;;;;;;11.32;7.38;;;10.00;99.90;;;;;;5096690;28;20035;-72
2022/04/19 06:29:27;;;;;;;11.35;7.25;;;10.10;99.90;;;;;;5114509;28;20067;-73
2022/04/19 06:31:53;;;;;;;10.18;8.05;;;10.20;99.90;;;;;;5096424;28;20471;-73
2022/04/19 06:34:18;;;;;;;11.88;8.98;;;10.20;99.90;;;;;;5114540;28;20414;-73
2022/04/19 06:36:44;;;;;;;11.20;7.43;;;10.30;99.90;;;;;;5114471;28;20057;-72
2022/04/19 06:39:10;;;;;;;12.77;7.53;;;10.40;99.90;;;;;;5111169;28;20062;-72
2022/04/19 06:41:37;;;;;;;12.35;7.45;;;10.40;99.90;;;;;;5104956;28;20036;-72
2022/04/19 06:44:03;;;;;;;10.90;7.35;;;10.40;99.90;;;;;;5103725;28;20036;-73
2022/04/19 06:46:29;;;;;;;15.50;7.80;;;10.50;99.90;;;;;;5102863;28;20036;-73
2022/04/19 06:48:55;;;;;;;13.07;7.82;;;10.70;99.90;;;;;;5099993;28;20055;-73
2022/04/19 06:51:22;;;;;;;14.27;8.68;;;10.70;99.90;;;;;;5093780;28;20040;-73
2022/04/19 06:53:48;;;;;;;14.38;7.65;;;10.70;99.90;;;;;;5093945;28;20094;-72
2022/04/19 06:56:14;;;;;;;14.35;8.13;;;10.80;99.90;;;;;;5094015;28;20035;-72
2022/04/19 06:58:40;;;;;;;12.82;8.00;;;10.90;99.90;;;;;;5093557;28;20046;-73
2022/04/19 07:01:07;;;;;;;11.82;7.75;;;10.90;99.90;;;;;;5075361;28;20040;-73
2022/04/19 07:03:33;;;;;;;11.70;7.78;;;11.00;99.90;;;;;;5075381;28;20119;-73
2022/04/19 07:06:02;;;;;;;12.38;7.97;;;11.10;99.90;;;;;;5075433;28;20044;-73
2022/04/19 07:08:28;;;;;;;12.68;8.50;;;11.10;99.90;;;;;;5093373;28;20401;-73
2022/04/19 07:10:53;;;;;;;14.05;8.05;;;11.20;99.90;;;;;;5075570;28;20044;-73
2022/04/19 07:13:19;;;;;;;10.35;6.95;;;11.30;99.90;;;;;;5092391;28;20032;-72
2022/04/19 07:15:45;;;;;;;16.45;7.78;;;11.50;99.90;;;;;;5075258;28;20044;-70
2022/04/19 07:18:10;;;;;;;14.85;9.07;;;11.60;99.90;;;;;;5093376;28;20044;-73
2022/04/19 07:28:49;;;;;;;13.50;7.65;;;11.70;99.90;;;;;;5074594;28;20055;-73
2022/04/19 07:31:14;;;;;;;14.23;8.23;;;11.80;99.90;;;;;;5093323;28;20040;-73
2022/04/19 07:33:40;;;;;;;12.45;8.07;;;11.80;99.90;;;;;;5074837;28;20040;-74
2022/04/19 07:36:06;;;;;;;13.27;7.65;;;11.80;99.90;;;;;;5074841;28;20036;-71
2022/04/19 07:38:32;;;;;;;15.82;8.32;;;11.80;99.90;;;;;;5074493;28;20054;-72
2022/04/19 07:40:58;;;;;;;12.27;7.90;;;11.80;99.90;;;;;;5092959;28;20412;-71
2022/04/19 07:43:23;;;;;;;11.93;7.65;;;11.90;99.90;;;;;;5092864;28;20036;-72
2022/04/19 07:45:49;;;;;;;13.27;8.13;;;11.90;99.90;;;;;;5092985;28;20040;-73
2022/04/19 07:48:15;;;;;;;15.02;8.02;;;11.90;99.90;;;;;;5093030;28;20130;-73
2022/04/19 07:50:42;;;;;;;12.38;8.40;;;12.10;99.90;;;;;;5092518;28;20048;-71
2022/04/19 07:53:08;;;;;;;13.13;8.02;;;12.20;99.90;;;;;;5074591;28;20072;-76
2022/04/19 07:55:34;;;;;;;12.70;7.10;;;12.30;99.90;;;;;;5074549;28;20032;-75
2022/04/19 07:58:00;;;;;;;14.00;7.15;;;12.40;99.90;;;;;;5092647;28;20046;-77
2022/04/19 08:00:27;;;;;;;15.10;8.15;;;12.40;99.90;;;;;;5074050;28;20104;-74
2022/04/19 08:02:55;;;;;;;10.63;7.40;;;12.50;99.90;;;;;;5092626;28;20051;-74
2022/04/19 08:05:21;;;;;;;12.63;7.57;;;12.60;99.90;;;;;;5092580;28;20074;-75
2022/04/19 08:07:48;;;;;;;14.02;7.22;;;12.70;99.90;;;;;;5074295;28;20051;-74
2022/04/19 08:10:14;;;;;;;12.38;7.63;;;12.90;99.90;;;;;;5073957;28;20047;-74
2022/04/19 08:12:40;;;;;;;10.63;6.75;;;12.90;99.90;;;;;;5073273;28;20707;-74
2022/04/19 08:15:06;;;;;;;13.68;7.35;;;12.90;99.90;;;;;;5074353;28;20050;-74
2022/04/19 08:17:32;;;;;;;9.77;7.05;;;13.00;99.90;;;;;;5074293;28;20036;-74
2022/04/19 08:19:58;;;;;;;13.70;8.10;;;13.10;99.90;;;;;;5092075;28;20047;-74
2022/04/19 08:22:24;;;;;;;10.52;7.20;;;13.20;99.90;;;;;;5092131;28;20048;-74
2022/04/19 08:24:50;;;;;;;11.95;7.25;;;13.30;99.90;;;;;;5092158;28;20399;-74
2022/04/19 08:27:16;;;;;;;9.85;6.90;;;13.30;99.90;;;;;;5091978;28;20043;-74
2022/04/19 08:29:43;;;;;;;13.05;7.20;;;13.40;99.90;;;;;;5091953;28;20039;-74
2022/04/19 08:32:09;;;;;;;9.75;7.00;;;13.40;99.90;;;;;;5092095;28;20692;-74
2022/04/19 08:34:35;;;;;;;12.43;6.20;;;13.50;99.90;;;;;;5073605;28;20036;-75
2022/04/19 08:37:02;;;;;;;8.07;6.43;;;13.60;99.90;;;;;;5091915;28;20431;-72
2022/04/19 08:39:28;;;;;;;9.82;5.72;;;13.50;99.90;;;;;;5091611;28;20036;-74
2022/04/19 08:41:54;;;;;;;13.40;6.53;;;13.70;99.90;;;;;;5056840;28;20044;-75
2022/04/19 08:44:20;;;;;;;9.60;6.60;;;13.60;99.90;;;;;;5091887;28;20389;-74
2022/04/19 08:46:46;;;;;;;12.38;7.00;;;13.70;99.90;;;;;;5091891;28;20068;-75
2022/04/19 08:49:13;;;;;;;12.80;6.50;;;13.60;99.90;;;;;;5073101;28;20502;-74
2022/04/19 08:51:40;;;;;;;9.23;6.40;;;13.70;99.90;;;;;;5091586;28;20075;-74
2022/04/19 08:59:37;;;;;;;8.82;5.47;;;13.90;99.90;;;;;;5091177;28;20143;-75
2022/04/19 09:02:04;;;;;;;9.07;5.70;;;13.90;99.90;;;;;;5091408;28;20048;-74
2022/04/19 09:04:30;;;;;;;6.40;4.93;;;13.90;99.90;;;;;;5091164;28;20450;-75
2022/04/19 09:06:58;;;;;;;6.80;4.78;;;13.90;99.90;;;;;;5091307;28;20040;-74
2022/04/19 09:09:25;;;;;;;6.18;4.35;;;14.00;99.90;;;;;;5091017;28;20507;-74
2022/04/19 09:11:53;;;;;;;5.47;3.78;;;14.10;96.40;;;;;;5073128;28;20040;-74
2022/04/19 09:14:19;;;;;;;8.18;4.35;;;14.10;95.10;;;;;;5073158;28;20044;-75
2022/04/19 09:16:45;;;;;;;7.03;4.28;;;14.20;96.10;;;;;;5091230;28;20363;-74
2022/04/19 09:19:27;;;;;;;5.90;4.10;;;14.40;97.50;;;;;;5055932;28;20055;-75
2022/04/19 09:21:52;;;;;;;5.10;3.23;;;14.30;93.50;;;;;;5090094;28;20040;-75
2022/04/19 09:24:20;;;;;;;5.68;3.35;;;14.20;90.80;;;;;;5090803;28;20039;-76
2022/04/19 09:26:50;;;;;;;4.70;2.95;;;14.20;72.10;;;;;;5056645;28;20043;-75
2022/04/19 09:29:23;;;;;;;5.20;3.08;;;14.30;82.10;;;;;;5072481;28;20044;-75
2022/04/19 09:32:02;;;;;;;5.28;3.13;;;14.30;91.50;;;;;;5090941;28;20043;-75
2022/04/19 09:34:34;;;;;;;5.50;3.28;;;14.40;68.40;;;;;;5056080;28;20473;-74
2022/04/19 09:37:13;;;;;;;4.50;2.78;;;14.30;69.50;;;;;;5073078;28;20044;-75
2022/04/19 09:39:39;;;;;;;4.80;3.10;;;14.40;61.90;;;;;;5072537;28;20102;-76
2022/04/19 09:42:14;;;;;;;7.20;3.15;;;14.40;63.50;;;;;;5072790;28;20051;-75
2022/04/19 09:44:44;;;;;;;2.92;2.50;;;14.50;61.10;;;;;;5056005;28;20036;-75
2022/04/19 09:47:11;;;;;;;6.20;2.35;;;14.60;57.00;;;;;;5072726;28;20036;-74
2022/04/19 09:49:58;;;;;;;4.57;3.17;;;14.60;57.30;;;;;;5072561;28;20047;-75
2022/04/19 09:52:23;;;;;;;4.68;3.13;;;14.80;60.60;;;;;;5072601;28;20063;-75
2022/04/19 09:55:10;;;;;;;6.53;3.63;;;14.70;60.40;;;;;;5072793;28;20105;-75
2022/04/19 09:57:38;;;;;;;4.97;3.55;;;14.70;63.40;;;;;;5072698;28;20071;-75
2022/04/19 10:00:08;;;;;;;4.35;3.35;;;14.80;59.90;;;;;;5090232;28;20075;-75
2022/04/19 10:08:20;;;;;;;4.32;2.45;;;14.90;56.30;;;;;;5090727;28;20044;-74
2022/04/19 10:10:52;;;;;;;6.35;3.78;;;15.20;59.50;;;;;;5072624;28;20090;-74
2022/04/19 10:13:19;;;;;;;7.25;2.78;;;15.20;57.90;;;;;;5083077;28;20476;-75
2022/04/19 10:15:45;;;;;;;4.95;2.42;;;15.10;58.10;;;;;;5075089;28;20040;-74
2022/04/19 10:18:10;;;;;;;3.15;2.30;;;15.20;56.70;;;;;;5090522;28;20048;-74
2022/04/19 10:20:44;;;;;;;4.97;2.95;;;15.40;59.50;;;;;;5090619;28;20036;-74
2022/04/19 10:23:11;;;;;;;5.60;2.78;;;15.50;55.30;;;;;;5072281;28;20044;-74
2022/04/19 10:25:43;;;;;;;3.53;2.35;;;15.40;54.20;;;;;;5072340;28;20051;-74
2022/04/19 10:28:13;;;;;;;4.25;1.85;;;15.40;56.70;;;;;;5072157;28;20169;-74
2022/04/19 10:30:46;;;;;;;3.78;1.92;;;15.50;54.70;;;;;;5071868;28;20040;-74
2022/04/19 10:33:51;;;;;;;4.00;1.70;;;15.50;52.90;;;;;;5090367;28;20400;-74
2022/04/19 10:36:33;;;;;;;5.30;1.63;;;15.50;48.60;;;;;;5092769;28;20036;-74
2022/04/19 10:39:14;;;;;;;5.25;2.00;;;15.60;50.70;;;;;;5093757;28;20599;-74
2022/04/19 10:41:59;;;;;;;2.38;1.80;;;15.70;53.50;;;;;;5094022;28;20515;-74
2022/04/19 10:44:46;;;;;;;6.05;2.08;;;15.60;51.40;;;;;;5093949;28;20067;-74
2022/04/19 10:47:19;;;;;;;3.08;1.55;;;15.60;52.40;;;;;;5075737;28;20047;-74
2022/04/19 10:49:55;;;;;;;2.88;2.00;;;15.60;50.80;;;;;;5075338;28;20039;-74
2022/04/19 10:52:44;;;;;;;2.47;1.45;;;15.60;51.60;;;;;;5093920;28;20449;-74
2022/04/19 10:55:23;;;;;;;6.32;2.05;;;15.50;49.70;;;;;;5059019;28;20040;-67
2022/04/19 11:00:56;;;;;;;2.05;1.60;;;15.60;50.20;;;;;;5093292;28;20051;-68
2022/04/19 11:03:34;;;;;;;2.50;1.77;;;15.60;51.80;;;;;;5093506;28;20487;-68
2022/04/19 11:06:02;;;;;;;4.57;2.35;;;15.60;51.20;;;;;;5093760;28;20411;-68
2022/04/19 11:08:31;;;;;;;3.28;2.00;;;15.80;53.30;;;;;;5093310;28;20040;-68
2022/04/19 11:11:02;;;;;;;2.50;1.92;;;15.80;51.70;;;;;;5093628;28;20471;-68
2022/04/19 11:13:38;;;;;;;4.05;2.58;;;15.70;53.60;;;;;;5093595;28;20039;-68
2022/04/19 11:16:04;;;;;;;3.10;1.52;;;15.80;54.90;;;;;;5093362;28;20480;-69
2022/04/19 11:18:36;;;;;;;2.42;1.83;;;15.80;53.70;;;;;;5093197;28;20051;-67
2022/04/19 11:21:04;;;;;;;3.53;1.70;;;15.90;53.20;;;;;;5093307;28;20044;-67
2022/04/19 11:23:44;;;;;;;3.40;1.90;;;15.90;52.80;;;;;;5075040;28;20491;-71
2022/04/19 11:26:29;;;;;;;3.17;1.92;;;15.90;54.70;;;;;;5075107;28;20519;-73
2022/04/19 11:29:12;;;;;;;3.42;2.00;;;15.90;52.70;;;;;;5093068;28;20121;-74
2022/04/19 11:31:44;;;;;;;4.40;1.60;;;15.70;52.00;;;;;;5093228;28;20399;-73
2022/04/19 11:34:16;;;;;;;4.45;2.15;;;15.90;53.30;;;;;;5093129;28;20040;-73
2022/04/19 11:36:43;;;;;;;1.90;1.75;;;16.00;54.70;;;;;;5093045;28;20040;-74
2022/04/19 11:46:43;;;;;;;2.15;1.70;;;16.10;53.80;;;;;;5093072;28;20404;-73
2022/04/19 11:47:47;;;;;;;5.75;1.63;;;16.10;53.90;;;;;;5091837;28;20044;-73
2022/04/19 11:50:26;;;;;;;5.35;1.80;;;16.20;54.50;;;;;;5092601;28;20043;-73
2022/04/19 11:52:51;;;;;;;3.95;1.85;;;16.30;53.50;;;;;;5092569;28;20073;-73
2022/04/19 11:55:17;;;;;;;2.08;1.80;;;16.40;54.00;;;;;;5074603;28;20521;-73
2022/04/19 11:57:43;;;;;;;3.17;1.80;;;16.40;55.80;;;;;;5092499;28;20047;-73
2022/04/19 12:00:09;;;;;;;2.28;2.05;;;16.30;53.90;;;;;;5092345;28;20047;-73
2022/04/19 12:02:36;;;;;;;3.65;2.15;;;16.20;53.10;;;;;;5074427;28;20039;-73
2022/04/19 12:05:03;;;;;;;2.75;1.67;;;16.40;55.80;;;;;;5092596;28;20079;-73
2022/04/19 12:07:28;;;;;;;3.95;2.00;;;16.50;54.70;;;;;;5092556;28;20074;-73
2022/04/19 12:09:57;;;;;;;2.35;1.60;;;16.40;54.00;;;;;;5092146;28;20528;-73
2022/04/19 12:12:23;;;;;;;2.92;2.08;;;16.60;56.10;;;;;;5074194;28;20078;-73
2022/04/19 12:14:53;;;;;;;2.90;1.85;;;16.60;52.50;;;;;;5041018;28;20669;-73
2022/04/19 12:17:20;;;;;;;3.50;1.63;;;16.50;52.00;;;;;;5074066;28;20044;-73
2022/04/19 12:19:46;;;;;;;6.25;2.20;;;16.50;52.80;;;;;;5073919;28;20032;-73
2022/04/19 12:22:22;;;;;;;2.38;1.90;;;16.60;53.20;;;;;;5074868;28;20488;-73
2022/04/19 12:24:52;;;;;;;4.57;2.30;;;16.70;53.80;;;;;;5074891;28;20040;-73
2022/04/19 12:27:33;;;;;;;2.28;1.70;;;16.70;53.90;;;;;;5092981;28;20405;-73
2022/04/19 12:30:11;;;;;;;7.72;1.90;;;16.70;52.30;;;;;;5080064;28;20093;-74
2022/04/19 12:32:51;;;;;;;2.83;1.90;;;16.60;51.50;;;;;;5100414;28;20067;-73
2022/04/19 12:35:22;;;;;;;2.25;1.92;;;16.60;51.70;;;;;;5081808;28;20048;-72
2022/04/19 12:38:05;;;;;;;2.63;1.65;;;16.70;51.80;;;;;;5081273;28;20372;-72
2022/04/19 12:40:31;;;;;;;4.20;1.70;;;16.70;51.70;;;;;;5073823;28;20044;-72
2022/04/19 12:42:57;;;;;;;3.67;1.60;;;16.70;52.50;;;;;;5073747;28;20560;-73
2022/04/19 12:45:22;;;;;;;1.88;1.45;;;16.80;51.10;;;;;;5091552;28;20032;-74
2022/04/19 12:47:49;;;;;;;2.67;1.60;;;16.70;51.00;;;;;;5073524;28;20090;-72
2022/04/19 12:50:20;;;;;;;3.47;1.92;;;16.80;51.10;;;;;;5091507;28;20036;-74
2022/04/19 12:52:47;;;;;;;2.33;1.98;;;16.80;51.40;;;;;;5073471;28;20044;-75
2022/04/19 12:55:13;;;;;;;3.17;2.20;;;16.80;49.80;;;;;;5091664;28;20032;-74
2022/04/19 12:57:42;;;;;;;7.05;2.10;;;16.70;49.40;;;;;;5091192;28;20051;-75
2022/04/19 13:00:09;;;;;;;7.10;2.20;;;16.70;50.40;;;;;;5091102;28;20450;-77
2022/04/19 13:02:40;;;;;;;2.78;2.08;;;16.70;50.00;;;;;;5091741;28;20050;-76
2022/04/19 13:05:06;;;;;;;4.43;2.08;;;16.80;50.80;;;;;;5091660;28;20052;-75
2022/04/19 13:12:52;;;;;;;3.33;2.30;;;17.00;50.70;;;;;;5091301;28;20397;-75
2022/04/19 13:15:17;;;;;;;4.63;2.08;;;16.80;49.70;;;;;;5091228;28;20676;-75
2022/04/19 13:17:43;;;;;;;3.95;2.42;;;16.80;50.70;;;;;;5091299;28;20040;-75
2022/04/19 13:20:10;;;;;;;4.65;2.30;;;16.90;50.70;;;;;;5091087;28;20089;-74
2022/04/19 13:22:39;;;;;;;3.67;2.20;;;17.00;50.30;;;;;;5091324;28;20040;-76
2022/04/19 13:25:05;;;;;;;4.20;2.28;;;17.00;50.30;;;;;;5091137;28;20032;-75
2022/04/19 13:27:35;;;;;;;5.05;2.65;;;16.90;51.30;;;;;;5072957;28;20061;-74
2022/04/19 13:30:01;;;;;;;3.15;2.60;;;16.80;51.30;;;;;;5072908;28;20408;-75
2022/04/19 13:32:27;;;;;;;4.22;2.60;;;16.80;51.00;;;;;;5072836;28;20032;-75
2022/04/19 13:34:53;;;;;;;7.93;2.33;;;17.00;51.70;;;;;;5073141;28;20089;-76
2022/04/19 13:38:23;;;;;;;3.25;2.63;;;17.00;50.10;;;;;;5091122;28;20040;-77